sensor_id;sensor_type;location;lat;lon;timestamp;pressure;altitude;pressure_sealevel;temperature;humidity
25658;BME280;13517;59.320;18.042;2023-08-21T00:02:21;101324.59;;;16.69;100.00
25658;BME280;13517;59.320;18.042;2023-08-21T00:04:46;101311.81;;;16.69;100.00
25658;BME280;13517;59.320;18.042;2023-08-21T00:07:12;101334.78;;;16.78;100.00
25658;BME280;13517;59.320;18.042;2023-08-21T00:09:38;101319.91;;;16.71;100.00
25658;BME280;13517;59.320;18.042;2023-08-21T00:12:04;101327.59;;;16.77;100.00
25658;BME280;13517;59.320;18.042;2023-08-21T00:14:29;101303.91;;;16.66;100.00
25658;BME280;13517;59.320;18.042;2023-08-21T00:16:54;101284.81;;;16.55;100.00
25658;BME280;13517;59.320;18.042;2023-08-21T00:19:20;101297.22;;;16.59;100.00
25658;BME280;13517;59.320;18.042;2023-08-21T00:21:45;101307.88;;;16.62;100.00
25658;BME280;13517;59.320;18.042;2023-08-21T00:24:11;101304.41;;;16.60;100.00
25658;BME280;13517;59.320;18.042;2023-08-21T00:26:36;101292.38;;;16.51;100.00
25658;BME280;13517;59.320;18.042;2023-08-21T00:29:02;101287.53;;;16.43;100.00
25658;BME280;13517;59.320;18.042;2023-08-21T00:31:27;101294.88;;;16.43;100.00
25658;BME280;13517;59.320;18.042;2023-08-21T00:33:52;101330.81;;;16.71;100.00
25658;BME280;13517;59.320;18.042;2023-08-21T00:36:18;101255.31;;;16.26;100.00
25658;BME280;13517;59.320;18.042;2023-08-21T00:38:45;101337.25;;;16.70;100.00
25658;BME280;13517;59.320;18.042;2023-08-21T00:41:10;101319.28;;;16.67;100.00
25658;BME280;13517;59.320;18.042;2023-08-21T00:43:36;101271.69;;;16.37;100.00
25658;BME280;13517;59.320;18.042;2023-08-21T00:46:01;101321.00;;;16.68;100.00
25658;BME280;13517;59.320;18.042;2023-08-21T00:48:28;101251.50;;;16.28;100.00
25658;BME280;13517;59.320;18.042;2023-08-21T00:50:53;101313.56;;;16.70;100.00
25658;BME280;13517;59.320;18.042;2023-08-21T00:53:19;101315.06;;;16.74;100.00
25658;BME280;13517;59.320;18.042;2023-08-21T00:55:45;101258.78;;;16.39;100.00
25658;BME280;13517;59.320;18.042;2023-08-21T00:58:10;101321.50;;;16.73;100.00
25658;BME280;13517;59.320;18.042;2023-08-21T01:00:40;101292.22;;;16.64;100.00
25658;BME280;13517;59.320;18.042;2023-08-21T01:03:06;101271.44;;;16.52;100.00
25658;BME280;13517;59.320;18.042;2023-08-21T01:05:32;101291.22;;;16.65;100.00
25658;BME280;13517;59.320;18.042;2023-08-21T01:08:02;101303.25;;;16.74;100.00
25658;BME280;13517;59.320;18.042;2023-08-21T01:13:01;101283.09;;;16.54;100.00
25658;BME280;13517;59.320;18.042;2023-08-21T01:15:31;101285.31;;;16.60;100.00
25658;BME280;13517;59.320;18.042;2023-08-21T01:17:57;101284.66;;;16.68;100.00
25658;BME280;13517;59.320;18.042;2023-08-21T01:20:23;101283.53;;;16.70;100.00
25658;BME280;13517;59.320;18.042;2023-08-21T01:22:48;101264.97;;;16.64;100.00
25658;BME280;13517;59.320;18.042;2023-08-21T01:25:15;101257.28;;;16.58;100.00
25658;BME280;13517;59.320;18.042;2023-08-21T01:27:43;101271.69;;;16.60;100.00
25658;BME280;13517;59.320;18.042;2023-08-21T01:30:10;101257.53;;;16.55;100.00
25658;BME280;13517;59.320;18.042;2023-08-21T01:33:00;101237.47;;;16.33;100.00
25658;BME280;13517;59.320;18.042;2023-08-21T01:35:28;101257.53;;;16.43;100.00
25658;BME280;13517;59.320;18.042;2023-08-21T01:37:55;101229.06;;;16.25;100.00
25658;BME280;13517;59.320;18.042;2023-08-21T01:40:24;101262.53;;;16.38;100.00
25658;BME280;13517;59.320;18.042;2023-08-21T01:42:50;101219.66;;;16.17;100.00
25658;BME280;13517;59.320;18.042;2023-08-21T01:45:17;101258.78;;;16.39;100.00
25658;BME280;13517;59.320;18.042;2023-08-21T01:47:42;101243.16;;;16.30;100.00
25658;BME280;13517;59.320;18.042;2023-08-21T01:50:08;101263.50;;;16.48;100.00
25658;BME280;13517;59.320;18.042;2023-08-21T01:52:34;101215.66;;;16.22;100.00
25658;BME280;13517;59.320;18.042;2023-08-21T01:54:59;101220.63;;;16.28;100.00
25658;BME280;13517;59.320;18.042;2023-08-21T01:57:25;101265.00;;;16.53;100.00
25658;BME280;13517;59.320;18.042;2023-08-21T01:59:50;101233.53;;;16.37;100.00
25658;BME280;13517;59.320;18.042;2023-08-21T02:02:16;101259.53;;;16.53;100.00
25658;BME280;13517;59.320;18.042;2023-08-21T02:04:41;101235.47;;;16.35;100.00
25658;BME280;13517;59.320;18.042;2023-08-21T02:07:07;101270.44;;;16.53;100.00
25658;BME280;13517;59.320;18.042;2023-08-21T02:09:33;101269.56;;;16.52;100.00
25658;BME280;13517;59.320;18.042;2023-08-21T02:11:58;101232.25;;;16.30;100.00
25658;BME280;13517;59.320;18.042;2023-08-21T02:14:24;101233.75;;;16.34;100.00
25658;BME280;13517;59.320;18.042;2023-08-21T02:16:49;101241.56;;;16.39;100.00
25658;BME280;13517;59.320;18.042;2023-08-21T02:19:14;101211.22;;;16.20;100.00
25658;BME280;13517;59.320;18.042;2023-08-21T02:21:40;101202.19;;;16.20;100.00
25658;BME280;13517;59.320;18.042;2023-08-21T02:24:05;101243.78;;;16.45;100.00
25658;BME280;13517;59.320;18.042;2023-08-21T02:26:31;101229.53;;;16.30;100.00
25658;BME280;13517;59.320;18.042;2023-08-21T02:28:56;101221.63;;;16.27;100.00
25658;BME280;13517;59.320;18.042;2023-08-21T02:31:22;101156.97;;;15.95;100.00
25658;BME280;13517;59.320;18.042;2023-08-21T02:33:48;101234.88;;;16.43;100.00
25658;BME280;13517;59.320;18.042;2023-08-21T02:36:15;101216.03;;;16.40;100.00
25658;BME280;13517;59.320;18.042;2023-08-21T02:38:41;101243.16;;;16.53;100.00
25658;BME280;13517;59.320;18.042;2023-08-21T02:41:06;101192.88;;;16.23;100.00
25658;BME280;13517;59.320;18.042;2023-08-21T02:43:31;101167.88;;;16.17;100.00
25658;BME280;13517;59.320;18.042;2023-08-21T02:45:57;101185.69;;;16.22;100.00
25658;BME280;13517;59.320;18.042;2023-08-21T02:48:22;101212.94;;;16.33;100.00
25658;BME280;13517;59.320;18.042;2023-08-21T02:50:48;101221.13;;;16.44;100.00
25658;BME280;13517;59.320;18.042;2023-08-21T02:53:14;101184.56;;;16.24;100.00
25658;BME280;13517;59.320;18.042;2023-08-21T02:55:39;101163.75;;;16.12;100.00
25658;BME280;13517;59.320;18.042;2023-08-21T02:58:04;101222.59;;;16.48;100.00
25658;BME280;13517;59.320;18.042;2023-08-21T03:00:30;101172.06;;;16.22;100.00
25658;BME280;13517;59.320;18.042;2023-08-21T03:02:55;101224.31;;;16.50;100.00
25658;BME280;13517;59.320;18.042;2023-08-21T03:05:21;101208.94;;;16.48;100.00
25658;BME280;13517;59.320;18.042;2023-08-21T03:07:47;101189.13;;;16.35;100.00
25658;BME280;13517;59.320;18.042;2023-08-21T03:10:12;101193.09;;;16.42;100.00
25658;BME280;13517;59.320;18.042;2023-08-21T03:12:37;101191.63;;;16.38;100.00
25658;BME280;13517;59.320;18.042;2023-08-21T03:15:03;101200.03;;;16.46;100.00
25658;BME280;13517;59.320;18.042;2023-08-21T03:17:29;101160.16;;;16.23;100.00
25658;BME280;13517;59.320;18.042;2023-08-21T03:19:54;101192.47;;;16.39;100.00
25658;BME280;13517;59.320;18.042;2023-08-21T03:22:20;101192.38;;;16.40;100.00
25658;BME280;13517;59.320;18.042;2023-08-21T03:24:45;101191.63;;;16.38;100.00
25658;BME280;13517;59.320;18.042;2023-08-21T03:27:10;101202.88;;;16.45;100.00
25658;BME280;13517;59.320;18.042;2023-08-21T03:29:36;101196.31;;;16.47;100.00
25658;BME280;13517;59.320;18.042;2023-08-21T03:32:01;101203.25;;;16.52;100.00
25658;BME280;13517;59.320;18.042;2023-08-21T03:34:27;101099.72;;;15.83;100.00
25658;BME280;13517;59.320;18.042;2023-08-21T03:36:52;101144.56;;;16.13;100.00
25658;BME280;13517;59.320;18.042;2023-08-21T03:39:18;101197.81;;;16.52;100.00
25658;BME280;13517;59.320;18.042;2023-08-21T03:41:43;101202.38;;;16.51;100.00
25658;BME280;13517;59.320;18.042;2023-08-21T03:44:09;101194.69;;;16.45;100.00
25658;BME280;13517;59.320;18.042;2023-08-21T03:46:34;101174.66;;;16.34;100.00
25658;BME280;13517;59.320;18.042;2023-08-21T03:48:59;101197.03;;;16.50;100.00
25658;BME280;13517;59.320;18.042;2023-08-21T03:51:25;101183.78;;;16.45;100.00
25658;BME280;13517;59.320;18.042;2023-08-21T03:53:50;101155.69;;;16.22;100.00
25658;BME280;13517;59.320;18.042;2023-08-21T03:56:16;101186.03;;;16.40;100.00
25658;BME280;13517;59.320;18.042;2023-08-21T03:58:41;101220.84;;;16.59;100.00
25658;BME280;13517;59.320;18.042;2023-08-21T04:01:07;101171.03;;;16.45;100.00
25658;BME280;13517;59.320;18.042;2023-08-21T04:03:32;101205.34;;;16.59;100.00
25658;BME280;13517;59.320;18.042;2023-08-21T04:05:58;101203.47;;;16.60;100.00
25658;BME280;13517;59.320;18.042;2023-08-21T04:08:24;101194.94;;;16.53;100.00
25658;BME280;13517;59.320;18.042;2023-08-21T04:10:50;101155.47;;;16.25;100.00
25658;BME280;13517;59.320;18.042;2023-08-21T04:13:17;101182.34;;;16.41;100.00
25658;BME280;13517;59.320;18.042;2023-08-21T04:15:48;101207.22;;;16.59;100.00
25658;BME280;13517;59.320;18.042;2023-08-21T04:18:13;101124.13;;;16.08;100.00
25658;BME280;13517;59.320;18.042;2023-08-21T04:20:39;101153.97;;;16.32;100.00
25658;BME280;13517;59.320;18.042;2023-08-21T04:23:04;101166.22;;;16.38;100.00
25658;BME280;13517;59.320;18.042;2023-08-21T04:25:30;101192.97;;;16.55;100.00
25658;BME280;13517;59.320;18.042;2023-08-21T04:27:55;101184.53;;;16.47;100.00
25658;BME280;13517;59.320;18.042;2023-08-21T04:30:21;101162.63;;;16.37;100.00
25658;BME280;13517;59.320;18.042;2023-08-21T04:32:47;101210.63;;;16.72;100.00
25658;BME280;13517;59.320;18.042;2023-08-21T04:35:13;101184.03;;;16.53;100.00
25658;BME280;13517;59.320;18.042;2023-08-21T04:37:43;101210.91;;;16.69;100.00
25658;BME280;13517;59.320;18.042;2023-08-21T04:40:10;101215.22;;;16.72;100.00
25658;BME280;13517;59.320;18.042;2023-08-21T04:42:36;101177.44;;;16.56;100.00
25658;BME280;13517;59.320;18.042;2023-08-21T04:45:01;101165.31;;;16.48;100.00
25658;BME280;13517;59.320;18.042;2023-08-21T04:47:27;101187.34;;;16.57;100.00
25658;BME280;13517;59.320;18.042;2023-08-21T04:49:54;101175.72;;;16.55;100.00
25658;BME280;13517;59.320;18.042;2023-08-21T04:52:21;101179.66;;;16.62;100.00
25658;BME280;13517;59.320;18.042;2023-08-21T04:54:48;101208.16;;;16.81;100.00
25658;BME280;13517;59.320;18.042;2023-08-21T04:57:14;101201.47;;;16.73;100.00
25658;BME280;13517;59.320;18.042;2023-08-21T04:59:39;101111.22;;;16.21;100.00
25658;BME280;13517;59.320;18.042;2023-08-21T05:02:05;101174.22;;;16.62;100.00
25658;BME280;13517;59.320;18.042;2023-08-21T05:04:30;101156.66;;;16.43;100.00
25658;BME280;13517;59.320;18.042;2023-08-21T05:06:56;101120.16;;;16.23;100.00
25658;BME280;13517;59.320;18.042;2023-08-21T05:09:21;101213.84;;;16.78;100.00
25658;BME280;13517;59.320;18.042;2023-08-21T05:11:47;101199.47;;;16.75;100.00
25658;BME280;13517;59.320;18.042;2023-08-21T05:14:12;101181.16;;;16.66;100.00
25658;BME280;13517;59.320;18.042;2023-08-21T05:16:37;101172.72;;;16.58;100.00
25658;BME280;13517;59.320;18.042;2023-08-21T05:19:03;101213.59;;;16.81;100.00
25658;BME280;13517;59.320;18.042;2023-08-21T05:21:28;101154.69;;;16.45;100.00
25658;BME280;13517;59.320;18.042;2023-08-21T05:23:54;101208.78;;;16.73;100.00
25658;BME280;13517;59.320;18.042;2023-08-21T05:26:19;101165.09;;;16.52;100.00
25658;BME280;13517;59.320;18.042;2023-08-21T05:28:45;101157.63;;;16.54;100.00
25658;BME280;13517;59.320;18.042;2023-08-21T05:31:11;101182.84;;;16.79;100.00
25658;BME280;13517;59.320;18.042;2023-08-21T05:33:36;101166.84;;;16.74;100.00
25658;BME280;13517;59.320;18.042;2023-08-21T05:36:01;101161.59;;;16.82;100.00
25658;BME280;13517;59.320;18.042;2023-08-21T05:38:27;101200.72;;;17.15;100.00
25658;BME280;13517;59.320;18.042;2023-08-21T05:40:52;101185.75;;;17.10;100.00
25658;BME280;13517;59.320;18.042;2023-08-21T05:43:18;101177.53;;;17.10;100.00
25658;BME280;13517;59.320;18.042;2023-08-21T05:45:44;101167.88;;;17.06;100.00
25658;BME280;13517;59.320;18.042;2023-08-21T05:48:09;101142.66;;;16.81;100.00
25658;BME280;13517;59.320;18.042;2023-08-21T05:50:35;101145.84;;;16.86;100.00
25658;BME280;13517;59.320;18.042;2023-08-21T05:53:05;101178.28;;;17.00;100.00
25658;BME280;13517;59.320;18.042;2023-08-21T05:55:31;101157.00;;;16.94;100.00
25658;BME280;13517;59.320;18.042;2023-08-21T05:57:57;101174.63;;;17.01;100.00
25658;BME280;13517;59.320;18.042;2023-08-21T06:00:22;101194.25;;;17.17;100.00
25658;BME280;13517;59.320;18.042;2023-08-21T06:02:48;101166.03;;;16.95;100.00
25658;BME280;13517;59.320;18.042;2023-08-21T06:05:13;101190.31;;;17.09;100.00
25658;BME280;13517;59.320;18.042;2023-08-21T06:07:39;101150.53;;;16.95;100.00
25658;BME280;13517;59.320;18.042;2023-08-21T06:10:07;101187.34;;;17.34;100.00
25658;BME280;13517;59.320;18.042;2023-08-21T06:12:32;101190.47;;;17.50;100.00
25658;BME280;13517;59.320;18.042;2023-08-21T06:14:58;101205.38;;;17.67;100.00
25658;BME280;13517;59.320;18.042;2023-08-21T06:17:23;101178.00;;;17.58;100.00
25658;BME280;13517;59.320;18.042;2023-08-21T06:19:48;101156.72;;;17.51;100.00
25658;BME280;13517;59.320;18.042;2023-08-21T06:22:14;101183.88;;;17.74;100.00
25658;BME280;13517;59.320;18.042;2023-08-21T06:24:40;101150.59;;;17.69;100.00
25658;BME280;13517;59.320;18.042;2023-08-21T06:27:06;101202.00;;;18.06;100.00
25658;BME280;13517;59.320;18.042;2023-08-21T06:29:32;101166.97;;;17.90;100.00
25658;BME280;13517;59.320;18.042;2023-08-21T06:31:57;101139.31;;;17.83;100.00
25658;BME280;13517;59.320;18.042;2023-08-21T06:34:23;101192.72;;;18.19;100.00
25658;BME280;13517;59.320;18.042;2023-08-21T06:36:48;101111.69;;;17.77;100.00
25658;BME280;13517;59.320;18.042;2023-08-21T06:39:14;101111.84;;;17.85;100.00
25658;BME280;13517;59.320;18.042;2023-08-21T06:41:39;101167.09;;;18.20;100.00
25658;BME280;13517;59.320;18.042;2023-08-21T06:44:04;101197.84;;;18.43;100.00
25658;BME280;13517;59.320;18.042;2023-08-21T06:46:30;101188.34;;;18.47;100.00
25658;BME280;13517;59.320;18.042;2023-08-21T06:48:55;101187.91;;;18.42;100.00
25658;BME280;13517;59.320;18.042;2023-08-21T06:51:21;101151.25;;;18.14;100.00
25658;BME280;13517;59.320;18.042;2023-08-21T06:53:46;101064.88;;;17.60;100.00
25658;BME280;13517;59.320;18.042;2023-08-21T06:56:11;101191.88;;;18.28;100.00
25658;BME280;13517;59.320;18.042;2023-08-21T06:58:37;101108.25;;;17.84;100.00
25658;BME280;13517;59.320;18.042;2023-08-21T07:01:02;101130.19;;;18.04;100.00
25658;BME280;13517;59.320;18.042;2023-08-21T07:03:28;101189.63;;;18.43;100.00
25658;BME280;13517;59.320;18.042;2023-08-21T07:05:57;101189.06;;;18.49;100.00
25658;BME280;13517;59.320;18.042;2023-08-21T07:08:23;101138.34;;;18.26;100.00
25658;BME280;13517;59.320;18.042;2023-08-21T07:10:49;101178.44;;;18.66;100.00
25658;BME280;13517;59.320;18.042;2023-08-21T07:13:14;101158.56;;;18.54;100.00
25658;BME280;13517;59.320;18.042;2023-08-21T07:15:40;101154.81;;;18.55;100.00
25658;BME280;13517;59.320;18.042;2023-08-21T07:18:05;101172.13;;;18.65;100.00
25658;BME280;13517;59.320;18.042;2023-08-21T07:20:31;101171.53;;;18.62;100.00
25658;BME280;13517;59.320;18.042;2023-08-21T07:22:57;101135.19;;;18.30;100.00
25658;BME280;13517;59.320;18.042;2023-08-21T07:25:22;101146.84;;;18.32;100.00
25658;BME280;13517;59.320;18.042;2023-08-21T07:27:48;101188.97;;;18.61;100.00
25658;BME280;13517;59.320;18.042;2023-08-21T07:30:16;101173.69;;;18.58;100.00
25658;BME280;13517;59.320;18.042;2023-08-21T07:32:42;101109.84;;;18.28;100.00
25658;BME280;13517;59.320;18.042;2023-08-21T07:35:08;101171.56;;;18.72;100.00
25658;BME280;13517;59.320;18.042;2023-08-21T07:37:34;101176.72;;;18.75;100.00
25658;BME280;13517;59.320;18.042;2023-08-21T07:39:59;101160.88;;;18.69;100.00
25658;BME280;13517;59.320;18.042;2023-08-21T07:42:25;101187.69;;;18.95;100.00
25658;BME280;13517;59.320;18.042;2023-08-21T07:44:50;101163.63;;;18.88;100.00
25658;BME280;13517;59.320;18.042;2023-08-21T07:47:15;101170.44;;;19.04;100.00
25658;BME280;13517;59.320;18.042;2023-08-21T07:49:41;101171.13;;;19.16;100.00
25658;BME280;13517;59.320;18.042;2023-08-21T07:52:06;101125.16;;;19.00;100.00
25658;BME280;13517;59.320;18.042;2023-08-21T07:54:32;101154.00;;;19.04;100.00
25658;BME280;13517;59.320;18.042;2023-08-21T07:56:57;101171.97;;;18.97;100.00
25658;BME280;13517;59.320;18.042;2023-08-21T07:59:23;101185.97;;;18.94;100.00
25658;BME280;13517;59.320;18.042;2023-08-21T08:01:48;101166.97;;;19.02;100.00
25658;BME280;13517;59.320;18.042;2023-08-21T08:04:13;101156.03;;;19.12;100.00
25658;BME280;13517;59.320;18.042;2023-08-21T08:06:39;101133.09;;;19.13;100.00
25658;BME280;13517;59.320;18.042;2023-08-21T08:09:04;101165.63;;;19.45;100.00
25658;BME280;13517;59.320;18.042;2023-08-21T08:11:30;101160.16;;;19.45;100.00
25658;BME280;13517;59.320;18.042;2023-08-21T08:13:56;101126.63;;;19.14;100.00
25658;BME280;13517;59.320;18.042;2023-08-21T08:16:21;101150.34;;;19.33;100.00
25658;BME280;13517;59.320;18.042;2023-08-21T08:18:47;101157.72;;;19.42;100.00
25658;BME280;13517;59.320;18.042;2023-08-21T08:21:12;101180.31;;;19.54;100.00
25658;BME280;13517;59.320;18.042;2023-08-21T08:23:38;101173.84;;;19.45;100.00
25658;BME280;13517;59.320;18.042;2023-08-21T08:26:03;101179.31;;;19.45;100.00
25658;BME280;13517;59.320;18.042;2023-08-21T08:28:28;101172.56;;;19.30;100.00
25658;BME280;13517;59.320;18.042;2023-08-21T08:30:54;101190.88;;;19.39;100.00
25658;BME280;13517;59.320;18.042;2023-08-21T08:33:20;101178.75;;;19.52;100.00
25658;BME280;13517;59.320;18.042;2023-08-21T08:35:45;101168.38;;;19.45;100.00
25658;BME280;13517;59.320;18.042;2023-08-21T08:38:11;101176.13;;;19.50;100.00
25658;BME280;13517;59.320;18.042;2023-08-21T08:40:43;101183.66;;;19.48;100.00
25658;BME280;13517;59.320;18.042;2023-08-21T08:43:10;101114.81;;;19.03;100.00
25658;BME280;13517;59.320;18.042;2023-08-21T08:45:36;101182.19;;;19.44;100.00
25658;BME280;13517;59.320;18.042;2023-08-21T08:48:02;101182.63;;;19.49;100.00
25658;BME280;13517;59.320;18.042;2023-08-21T08:50:29;101194.28;;;19.61;100.00
25658;BME280;13517;59.320;18.042;2023-08-21T08:52:56;101149.75;;;19.49;100.00
25658;BME280;13517;59.320;18.042;2023-08-21T08:55:22;101183.03;;;19.64;100.00
25658;BME280;13517;59.320;18.042;2023-08-21T08:57:48;101175.13;;;19.41;100.00
25658;BME280;13517;59.320;18.042;2023-08-21T09:00:14;101160.91;;;19.28;100.00
25658;BME280;13517;59.320;18.042;2023-08-21T09:02:40;101141.88;;;19.16;100.00
25658;BME280;13517;59.320;18.042;2023-08-21T09:05:06;101161.91;;;19.17;100.00
25658;BME280;13517;59.320;18.042;2023-08-21T09:07:33;101172.16;;;19.15;100.00
25658;BME280;13517;59.320;18.042;2023-08-21T09:09:59;101171.44;;;19.03;100.00
25658;BME280;13517;59.320;18.042;2023-08-21T09:12:25;101172.91;;;19.07;100.00
25658;BME280;13517;59.320;18.042;2023-08-21T09:14:50;101167.69;;;19.04;100.00
25658;BME280;13517;59.320;18.042;2023-08-21T09:17:16;101166.53;;;19.07;100.00
25658;BME280;13517;59.320;18.042;2023-08-21T09:19:42;101162.66;;;19.09;100.00
25658;BME280;13517;59.320;18.042;2023-08-21T09:22:15;101158.75;;;19.12;100.00
25658;BME280;13517;59.320;18.042;2023-08-21T09:25:06;101165.09;;;19.12;100.00
25658;BME280;13517;59.320;18.042;2023-08-21T09:27:33;101130.22;;;19.14;100.00
25658;BME280;13517;59.320;18.042;2023-08-21T09:29:59;101161.44;;;19.41;100.00
25658;BME280;13517;59.320;18.042;2023-08-21T09:32:25;101133.22;;;19.31;100.00
25658;BME280;13517;59.320;18.042;2023-08-21T09:34:51;101155.91;;;19.61;100.00
25658;BME280;13517;59.320;18.042;2023-08-21T09:37:16;101163.06;;;19.82;100.00
25658;BME280;13517;59.320;18.042;2023-08-21T09:39:42;101135.41;;;19.75;100.00
25658;BME280;13517;59.320;18.042;2023-08-21T09:42:08;101160.88;;;19.95;100.00
25658;BME280;13517;59.320;18.042;2023-08-21T09:44:38;101117.88;;;19.58;100.00
25658;BME280;13517;59.320;18.042;2023-08-21T09:47:07;101150.97;;;19.74;100.00
25658;BME280;13517;59.320;18.042;2023-08-21T09:49:34;101160.78;;;19.77;100.00
25658;BME280;13517;59.320;18.042;2023-08-21T09:52:00;101169.44;;;19.82;100.00
25658;BME280;13517;59.320;18.042;2023-08-21T09:54:26;101166.13;;;19.79;100.00
25658;BME280;13517;59.320;18.042;2023-08-21T09:56:53;101162.81;;;19.75;100.00
25658;BME280;13517;59.320;18.042;2023-08-21T09:59:19;101120.88;;;19.55;100.00
25658;BME280;13517;59.320;18.042;2023-08-21T10:01:46;101148.13;;;19.66;100.00
25658;BME280;13517;59.320;18.042;2023-08-21T10:04:17;101149.00;;;19.67;100.00
25658;BME280;13517;59.320;18.042;2023-08-21T10:06:44;101155.91;;;19.71;100.00
25658;BME280;13517;59.320;18.042;2023-08-21T10:09:10;101100.78;;;19.36;100.00
25658;BME280;13517;59.320;18.042;2023-08-21T10:11:35;101140.44;;;19.80;100.00
25658;BME280;13517;59.320;18.042;2023-08-21T10:14:01;101133.53;;;19.66;100.00
25658;BME280;13517;59.320;18.042;2023-08-21T10:16:27;101135.00;;;19.60;100.00
25658;BME280;13517;59.320;18.042;2023-08-21T10:18:52;101147.00;;;19.59;100.00
25658;BME280;13517;59.320;18.042;2023-08-21T10:21:19;101145.31;;;19.38;100.00
25658;BME280;13517;59.320;18.042;2023-08-21T10:23:47;101143.88;;;19.34;100.00
25658;BME280;13517;59.320;18.042;2023-08-21T10:26:13;101141.00;;;19.36;100.00
25658;BME280;13517;59.320;18.042;2023-08-21T10:31:36;101134.94;;;19.32;100.00
25658;BME280;13517;59.320;18.042;2023-08-21T10:34:08;101115.19;;;19.38;100.00
25658;BME280;13517;59.320;18.042;2023-08-21T10:39:14;101136.66;;;19.33;100.00
25658;BME280;13517;59.320;18.042;2023-08-21T10:41:40;101123.19;;;19.59;100.00
25658;BME280;13517;59.320;18.042;2023-08-21T10:44:06;101073.47;;;19.54;100.00
25658;BME280;13517;59.320;18.042;2023-08-21T10:46:52;101059.25;;;19.69;100.00
25658;BME280;13517;59.320;18.042;2023-08-21T10:49:18;101135.88;;;20.26;100.00
25658;BME280;13517;59.320;18.042;2023-08-21T10:51:43;101118.63;;;20.16;100.00
25658;BME280;13517;59.320;18.042;2023-08-21T10:54:15;101133.00;;;20.00;100.00
25658;BME280;13517;59.320;18.042;2023-08-21T10:56:41;101076.34;;;19.53;100.00
25658;BME280;13517;59.320;18.042;2023-08-21T10:59:07;101147.28;;;19.94;100.00
25658;BME280;13517;59.320;18.042;2023-08-21T11:01:45;101139.41;;;19.81;100.00
25658;BME280;13517;59.320;18.042;2023-08-21T11:04:13;101150.34;;;20.00;100.00
25658;BME280;13517;59.320;18.042;2023-08-21T11:06:39;101126.97;;;19.96;100.00
25658;BME280;13517;59.320;18.042;2023-08-21T11:09:05;101144.06;;;20.08;100.00
25658;BME280;13517;59.320;18.042;2023-08-21T11:11:31;101131.34;;;20.17;100.00
25658;BME280;13517;59.320;18.042;2023-08-21T11:13:56;101086.25;;;19.92;100.00
25658;BME280;13517;59.320;18.042;2023-08-21T11:16:22;101134.06;;;20.17;100.00
25658;BME280;13517;59.320;18.042;2023-08-21T11:18:49;101069.44;;;19.77;100.00
25658;BME280;13517;59.320;18.042;2023-08-21T11:21:15;101109.91;;;20.03;100.00
25658;BME280;13517;59.320;18.042;2023-08-21T11:23:41;101122.09;;;20.18;100.00
25658;BME280;13517;59.320;18.042;2023-08-21T11:26:11;101115.84;;;20.26;100.00
25658;BME280;13517;59.320;18.042;2023-08-21T11:28:38;101117.19;;;20.40;100.00
25658;BME280;13517;59.320;18.042;2023-08-21T11:31:04;101074.84;;;20.24;100.00
25658;BME280;13517;59.320;18.042;2023-08-21T11:33:31;101118.47;;;20.46;100.00
25658;BME280;13517;59.320;18.042;2023-08-21T11:35:57;101118.13;;;20.49;100.00
25658;BME280;13517;59.320;18.042;2023-08-21T11:38:25;101112.72;;;20.57;100.00
25658;BME280;13517;59.320;18.042;2023-08-21T11:40:58;101115.47;;;20.57;100.00
25658;BME280;13517;59.320;18.042;2023-08-21T11:43:40;101091.16;;;20.44;100.00
25658;BME280;13517;59.320;18.042;2023-08-21T11:46:07;101092.88;;;20.63;100.00
25658;BME280;13517;59.320;18.042;2023-08-21T11:48:33;101090.16;;;20.63;100.00
25658;BME280;13517;59.320;18.042;2023-08-21T11:50:59;101084.91;;;20.70;100.00
25658;BME280;13517;59.320;18.042;2023-08-21T11:55:59;101034.72;;;20.60;100.00
25658;BME280;13517;59.320;18.042;2023-08-21T11:58:27;101095.47;;;21.01;100.00
25658;BME280;13517;59.320;18.042;2023-08-21T12:00:53;101095.09;;;20.96;100.00
25658;BME280;13517;59.320;18.042;2023-08-21T12:03:19;101059.19;;;20.71;100.00
25658;BME280;13517;59.320;18.042;2023-08-21T12:05:44;101099.69;;;20.87;100.00
25658;BME280;13517;59.320;18.042;2023-08-21T12:08:10;101075.66;;;20.71;100.00
25658;BME280;13517;59.320;18.042;2023-08-21T12:10:36;101015.28;;;20.35;100.00
25658;BME280;13517;59.320;18.042;2023-08-21T12:13:01;101096.44;;;20.74;100.00
25658;BME280;13517;59.320;18.042;2023-08-21T12:15:27;101079.41;;;20.52;100.00
25658;BME280;13517;59.320;18.042;2023-08-21T12:17:52;101018.47;;;20.12;100.00
25658;BME280;13517;59.320;18.042;2023-08-21T12:20:18;101083.09;;;20.42;100.00
25658;BME280;13517;59.320;18.042;2023-08-21T12:22:43;101066.19;;;20.19;100.00
25658;BME280;13517;59.320;18.042;2023-08-21T12:25:08;101075.16;;;20.21;100.00
25658;BME280;13517;59.320;18.042;2023-08-21T12:27:35;101073.25;;;20.22;100.00
25658;BME280;13517;59.320;18.042;2023-08-21T12:30:01;101009.63;;;20.00;100.00
25658;BME280;13517;59.320;18.042;2023-08-21T12:32:26;101067.16;;;20.46;100.00
25658;BME280;13517;59.320;18.042;2023-08-21T12:34:52;101048.22;;;20.35;100.00
25658;BME280;13517;59.320;18.042;2023-08-21T12:37:18;101076.91;;;20.59;100.00